createdAt,value
2022-10-22T00:00:02.500Z,12.0
2022-10-22T00:02:02.224Z,9.4
2022-10-22T00:04:02.988Z,9.9
2022-10-22T00:06:02.983Z,9.1
2022-10-22T00:08:02.275Z,6.1
2022-10-22T00:10:04.266Z,10.3
2022-10-22T00:12:02.735Z,9.4
2022-10-22T00:14:03.403Z,10.0
2022-10-22T00:16:02.206Z,8.4
2022-10-22T00:18:02.186Z,9.5
2022-10-22T00:20:02.850Z,9.9
2022-10-22T00:22:05.243Z,8.0
2022-10-22T00:24:02.857Z,11.0
2022-10-22T00:26:02.310Z,9.0
2022-10-22T00:28:03.571Z,10.0
2022-10-22T00:30:02.253Z,7.3
2022-10-22T00:32:03.149Z,9.0
2022-10-22T00:34:02.426Z,10.3
2022-10-22T00:36:03.015Z,8.8
2022-10-22T00:38:03.194Z,7.7
2022-10-22T00:40:02.383Z,11.3
2022-10-22T00:42:02.204Z,9.0
2022-10-22T00:44:05.198Z,9.4
2022-10-22T00:46:02.378Z,8.1
2022-10-22T00:48:06.891Z,8.2
2022-10-22T00:52:02.390Z,9.7
2022-10-22T00:54:07.026Z,6.7
2022-10-22T00:56:02.923Z,10.3
2022-10-22T00:58:03.577Z,7.9
2022-10-22T01:00:04.096Z,10.3
2022-10-22T01:02:02.393Z,8.4
2022-10-22T01:04:02.227Z,13.9
2022-10-22T01:06:05.760Z,9.7
2022-10-22T01:08:03.255Z,10.6
2022-10-22T01:10:08.661Z,9.4
2022-10-22T01:12:12.478Z,10.2
2022-10-22T01:14:12.921Z,8.3
2022-10-22T01:16:11.205Z,7.8
2022-10-22T01:18:08.003Z,9.1
2022-10-22T01:20:12.550Z,8.0
2022-10-22T01:22:10.238Z,7.9
2022-10-22T01:24:20.351Z,7.4
2022-10-22T01:26:13.064Z,7.4
2022-10-22T01:28:15.693Z,7.2
2022-10-22T01:30:05.739Z,7.9
2022-10-22T01:32:06.892Z,11.2
2022-10-22T01:34:04.458Z,6.7
2022-10-22T01:36:04.461Z,9.3
2022-10-22T01:38:05.938Z,10.2
2022-10-22T01:40:03.564Z,10.2
2022-10-22T01:42:02.794Z,10.0
2022-10-22T01:44:02.995Z,7.3
2022-10-22T01:46:06.171Z,7.4
2022-10-22T01:48:10.657Z,9.8
2022-10-22T01:50:21.280Z,6.8
2022-10-22T01:52:13.840Z,8.2
2022-10-22T01:54:16.409Z,7.6
2022-10-22T01:56:13.222Z,11.0
2022-10-22T01:58:12.957Z,9.7
2022-10-22T02:00:06.998Z,9.7
2022-10-22T02:02:10.874Z,9.4
2022-10-22T02:04:10.888Z,9.3
2022-10-22T02:06:11.637Z,11.2
2022-10-22T02:08:06.626Z,6.7
2022-10-22T02:10:04.323Z,6.0
2022-10-22T02:14:05.195Z,9.1
2022-10-22T02:16:07.043Z,8.7
2022-10-22T02:18:06.698Z,6.6
2022-10-22T02:20:07.689Z,12.8
2022-10-22T02:22:02.693Z,6.3
2022-10-22T02:24:02.269Z,5.3
2022-10-22T02:26:11.601Z,7.8
2022-10-22T02:28:14.077Z,8.1
2022-10-22T02:30:05.887Z,4.8
2022-10-22T02:32:05.929Z,8.6
2022-10-22T02:34:09.783Z,5.4
2022-10-22T02:36:03.587Z,6.4
2022-10-22T02:38:03.530Z,5.9
2022-10-22T02:40:02.541Z,5.8
2022-10-22T02:42:03.681Z,7.2
2022-10-22T02:44:07.253Z,6.9
2022-10-22T02:46:02.386Z,5.7
2022-10-22T02:48:03.260Z,6.8
2022-10-22T02:50:05.425Z,6.2
2022-10-22T02:52:03.067Z,7.1
2022-10-22T02:54:02.203Z,8.1
2022-10-22T02:56:02.220Z,6.6
2022-10-22T02:58:02.380Z,7.0
2022-10-22T03:00:04.215Z,8.0
2022-10-22T03:02:03.468Z,7.7
2022-10-22T03:04:02.829Z,5.9
2022-10-22T03:06:03.174Z,5.8
2022-10-22T03:08:02.275Z,7.5
2022-10-22T03:10:02.377Z,5.6
2022-10-22T03:12:02.177Z,5.9
2022-10-22T03:14:02.495Z,7.3
2022-10-22T03:16:02.835Z,7.0
2022-10-22T03:18:02.240Z,11.3
2022-10-22T03:20:02.192Z,12.2
2022-10-22T03:22:05.663Z,6.9
2022-10-22T03:24:05.919Z,7.6
2022-10-22T03:26:03.817Z,6.0
2022-10-22T03:28:05.885Z,9.7
2022-10-22T03:30:03.598Z,6.6
2022-10-22T03:32:02.877Z,6.9
2022-10-22T03:34:02.354Z,9.7
2022-10-22T03:36:03.104Z,11.3
2022-10-22T03:38:02.823Z,9.9
2022-10-22T03:40:03.733Z,8.4
2022-10-22T03:42:02.881Z,11.9
2022-10-22T03:44:03.732Z,9.0
2022-10-22T03:46:02.946Z,7.1
2022-10-22T03:48:02.418Z,7.2
2022-10-22T03:50:03.002Z,9.5
2022-10-22T03:52:06.879Z,7.1
2022-10-22T03:54:02.700Z,8.5
2022-10-22T03:56:02.868Z,7.6
2022-10-22T03:58:02.393Z,9.2
2022-10-22T04:00:03.222Z,12.0
2022-10-22T04:02:02.838Z,10.0
2022-10-22T04:04:02.158Z,9.8
2022-10-22T04:06:03.603Z,11.8
2022-10-22T04:08:02.183Z,10.1
2022-10-22T04:10:02.373Z,8.7
2022-10-22T04:12:02.556Z,11.7
2022-10-22T04:14:02.775Z,12.3
2022-10-22T04:16:11.261Z,8.8
2022-10-22T04:18:02.192Z,12.3
2022-10-22T04:20:04.327Z,9.1
2022-10-22T04:22:03.093Z,14.0
2022-10-22T04:24:02.210Z,18.1
2022-10-22T04:26:04.703Z,12.5
2022-10-22T04:28:02.684Z,9.2
2022-10-22T04:30:02.544Z,13.0
2022-10-22T04:32:02.274Z,11.2
2022-10-22T04:34:03.388Z,14.3
2022-10-22T04:36:06.629Z,14.0
2022-10-22T04:38:02.471Z,13.8
2022-10-22T04:40:02.915Z,11.5
2022-10-22T04:42:02.425Z,12.9
2022-10-22T04:44:02.559Z,17.1
2022-10-22T04:46:03.120Z,12.2
2022-10-22T04:48:02.805Z,10.3
2022-10-22T04:50:02.395Z,13.3
2022-10-22T04:52:02.792Z,10.7
2022-10-22T04:54:02.757Z,13.6
2022-10-22T04:56:13.619Z,12.1
2022-10-22T04:58:02.918Z,10.4
2022-10-22T05:00:02.949Z,16.5
2022-10-22T05:02:02.479Z,11.0
2022-10-22T05:04:05.045Z,13.4
2022-10-22T05:06:02.793Z,10.4
2022-10-22T05:08:02.943Z,10.7
2022-10-22T05:10:02.371Z,11.3
2022-10-22T05:12:02.179Z,12.3
2022-10-22T05:14:05.473Z,10.1
2022-10-22T05:16:02.869Z,12.8
2022-10-22T05:18:02.456Z,12.4
2022-10-22T05:20:02.262Z,13.1
2022-10-22T05:22:05.073Z,11.6
2022-10-22T05:24:03.619Z,9.7
2022-10-22T05:26:03.026Z,10.9
2022-10-22T05:28:02.145Z,11.5
2022-10-22T05:30:02.231Z,12.4
2022-10-22T05:32:02.387Z,9.2
2022-10-22T05:34:02.485Z,10.1
2022-10-22T05:36:04.950Z,9.1
2022-10-22T05:38:02.206Z,9.9
2022-10-22T05:40:12.729Z,8.9
2022-10-22T05:42:03.197Z,11.1
2022-10-22T05:44:02.829Z,11.4
2022-10-22T05:46:04.477Z,13.3
2022-10-22T05:48:02.172Z,9.8
2022-10-22T05:50:02.681Z,10.3
2022-10-22T05:52:02.704Z,11.4
2022-10-22T05:54:07.263Z,15.5
2022-10-22T05:56:04.389Z,14.3
2022-10-22T05:58:03.625Z,12.6
2022-10-22T06:00:03.169Z,10.5
2022-10-22T06:02:02.263Z,10.5
2022-10-22T06:04:05.538Z,10.7
2022-10-22T06:06:06.252Z,13.9
2022-10-22T06:08:03.079Z,13.9
2022-10-22T06:10:03.080Z,12.9
2022-10-22T06:12:03.224Z,11.5
2022-10-22T06:14:02.779Z,14.6
2022-10-22T06:16:02.237Z,10.6
2022-10-22T06:18:02.481Z,8.0
2022-10-22T06:20:02.269Z,7.7
2022-10-22T06:22:03.472Z,5.5
2022-10-22T06:24:02.283Z,6.8
2022-10-22T06:26:02.935Z,8.0
2022-10-22T06:28:02.183Z,8.7
2022-10-22T06:30:02.462Z,6.4
2022-10-22T06:32:02.267Z,8.3
2022-10-22T06:34:02.560Z,6.8
2022-10-22T06:36:07.668Z,8.5
2022-10-22T06:38:02.197Z,8.3
2022-10-22T06:40:02.243Z,7.7
2022-10-22T06:42:02.916Z,7.9
2022-10-22T06:44:02.234Z,8.4
2022-10-22T06:46:04.663Z,5.4
2022-10-22T06:48:02.232Z,5.5
2022-10-22T06:50:02.211Z,8.7
2022-10-22T06:52:02.797Z,6.1
2022-10-22T06:54:02.403Z,7.0
2022-10-22T06:56:05.497Z,6.3
2022-10-22T06:58:02.569Z,9.0
2022-10-22T07:00:02.474Z,8.5
2022-10-22T07:04:04.131Z,7.8
2022-10-22T07:06:04.006Z,6.9
2022-10-22T07:08:02.209Z,7.1
2022-10-22T07:10:02.356Z,5.2
2022-10-22T07:12:02.778Z,7.0
2022-10-22T07:14:02.207Z,8.9
2022-10-22T07:16:03.629Z,6.5
2022-10-22T07:18:04.326Z,6.8
2022-10-22T07:20:02.245Z,8.2
2022-10-22T07:22:03.254Z,8.2
2022-10-22T07:24:02.280Z,9.1
2022-10-22T07:26:04.152Z,9.3
2022-10-22T07:28:02.193Z,11.0
2022-10-22T07:30:03.450Z,8.7
2022-10-22T07:32:02.308Z,7.9
2022-10-22T07:34:02.656Z,7.7
2022-10-22T07:36:05.037Z,10.3
2022-10-22T07:38:02.778Z,10.4
2022-10-22T07:40:04.075Z,8.3
2022-10-22T07:42:02.203Z,9.4
2022-10-22T07:44:02.219Z,8.7
2022-10-22T07:46:02.582Z,7.3
2022-10-22T07:48:02.329Z,8.6
2022-10-22T07:50:02.280Z,7.0
2022-10-22T07:52:02.252Z,7.7
2022-10-22T07:54:02.286Z,5.7
2022-10-22T07:56:02.762Z,7.0
2022-10-22T07:58:02.554Z,5.9
2022-10-22T08:00:02.441Z,6.4
2022-10-22T08:02:02.223Z,6.6
2022-10-22T08:04:02.753Z,8.9
2022-10-22T08:06:03.238Z,8.5
2022-10-22T08:08:02.191Z,6.1
2022-10-22T08:10:02.560Z,8.0
2022-10-22T08:12:02.211Z,6.9
2022-10-22T08:14:02.253Z,5.8
2022-10-22T08:16:03.215Z,9.3
2022-10-22T08:18:02.792Z,6.1
2022-10-22T08:20:02.885Z,8.6
2022-10-22T08:22:03.344Z,7.1
2022-10-22T08:24:02.257Z,8.1
2022-10-22T08:26:03.041Z,5.5
2022-10-22T08:28:02.174Z,6.5
2022-10-22T08:30:02.587Z,7.9
2022-10-22T08:32:02.870Z,6.8
2022-10-22T08:34:05.173Z,7.3
2022-10-22T08:36:02.949Z,7.8
2022-10-22T08:38:02.745Z,7.3
2022-10-22T08:40:02.222Z,7.0
2022-10-22T08:42:16.482Z,6.1
2022-10-22T08:44:20.873Z,7.2
2022-10-22T08:46:15.326Z,9.3
2022-10-22T08:48:13.548Z,8.8
2022-10-22T08:50:03.188Z,8.0
2022-10-22T08:52:02.987Z,8.2
2022-10-22T08:54:17.137Z,7.0
2022-10-22T08:56:02.220Z,6.8
2022-10-22T08:58:17.219Z,6.3
2022-10-22T09:00:10.757Z,7.5
2022-10-22T09:02:04.967Z,7.7
2022-10-22T09:04:11.155Z,7.9
2022-10-22T09:06:09.162Z,6.0
2022-10-22T09:08:02.462Z,5.8
2022-10-22T09:10:04.413Z,7.5
2022-10-22T09:12:04.657Z,7.1
2022-10-22T09:14:03.860Z,8.5
2022-10-22T09:16:15.204Z,7.8
2022-10-22T09:18:17.045Z,7.4
2022-10-22T09:20:15.718Z,8.3
2022-10-22T09:22:11.199Z,7.6
2022-10-22T09:24:08.708Z,6.3
2022-10-22T09:26:02.610Z,7.2
2022-10-22T09:28:02.420Z,6.6
2022-10-22T09:30:02.426Z,5.9
2022-10-22T09:32:02.809Z,7.1
2022-10-22T09:34:07.081Z,7.2
2022-10-22T09:36:05.316Z,7.8
2022-10-22T09:38:09.272Z,9.2
2022-10-22T09:40:06.563Z,8.5
2022-10-22T09:42:02.300Z,6.3
2022-10-22T09:44:02.215Z,7.3
2022-10-22T09:46:05.406Z,9.2
2022-10-22T09:48:10.962Z,7.9
2022-10-22T09:50:17.314Z,12.1
2022-10-22T09:52:03.072Z,10.8
2022-10-22T09:54:12.741Z,7.3
2022-10-22T09:56:09.482Z,9.0
2022-10-22T09:58:02.907Z,7.7
2022-10-22T10:00:02.394Z,6.7
2022-10-22T10:02:20.417Z,7.5
2022-10-22T10:04:09.385Z,7.7
2022-10-22T10:06:06.000Z,8.5
2022-10-22T10:08:12.925Z,7.2
2022-10-22T10:10:13.135Z,7.8
2022-10-22T10:12:16.096Z,8.1
2022-10-22T10:14:12.166Z,7.0
2022-10-22T10:16:08.542Z,10.4
2022-10-22T10:18:14.628Z,10.9
2022-10-22T10:20:19.496Z,8.5
2022-10-22T10:22:13.087Z,10.6
2022-10-22T10:24:15.036Z,9.1
2022-10-22T10:26:09.968Z,9.2
2022-10-22T10:28:13.902Z,8.1
2022-10-22T10:30:09.921Z,7.2
2022-10-22T10:32:15.503Z,5.7
2022-10-22T10:34:12.590Z,7.1
2022-10-22T10:36:10.096Z,10.5
2022-10-22T10:38:19.477Z,8.4
2022-10-22T10:40:18.961Z,5.8
2022-10-22T10:42:11.578Z,6.5
2022-10-22T10:44:21.324Z,10.1
2022-10-22T10:46:09.887Z,10.1
2022-10-22T10:48:17.882Z,7.2
2022-10-22T10:50:18.609Z,5.8
2022-10-22T10:52:12.065Z,5.8
2022-10-22T10:54:13.697Z,5.4
2022-10-22T10:56:12.160Z,5.3
2022-10-22T10:58:11.788Z,7.0
2022-10-22T11:00:06.871Z,6.8
2022-10-22T11:02:18.343Z,4.4
2022-10-22T11:04:14.209Z,6.7
2022-10-22T11:06:04.453Z,7.1
2022-10-22T11:08:06.596Z,6.1
2022-10-22T11:10:09.851Z,6.2
2022-10-22T11:12:08.799Z,6.6
2022-10-22T11:14:10.977Z,7.4
2022-10-22T11:16:07.420Z,8.4
2022-10-22T11:18:10.781Z,6.4
2022-10-22T11:20:12.384Z,6.4
2022-10-22T11:22:06.070Z,7.7
2022-10-22T11:24:12.663Z,4.9
2022-10-22T11:26:05.675Z,7.6
2022-10-22T11:28:11.327Z,6.3
2022-10-22T11:30:04.453Z,6.9
2022-10-22T11:32:03.983Z,8.7
2022-10-22T11:34:32.142Z,6.0
2022-10-22T11:36:06.357Z,8.8
2022-10-22T11:38:05.377Z,9.4
2022-10-22T11:40:07.510Z,8.5
2022-10-22T11:42:06.243Z,5.6
2022-10-22T11:44:12.435Z,8.3
2022-10-22T11:46:18.096Z,8.8
2022-10-22T11:48:14.386Z,5.2
2022-10-22T11:50:21.277Z,7.0
2022-10-22T11:52:21.216Z,6.7
2022-10-22T11:54:12.255Z,8.3
2022-10-22T11:56:21.306Z,6.1
2022-10-22T11:58:21.223Z,7.1
2022-10-22T12:00:10.145Z,8.6
2022-10-22T12:02:02.209Z,6.6
2022-10-22T12:04:21.469Z,9.5
2022-10-22T12:06:11.176Z,5.8
2022-10-22T12:08:16.222Z,4.7
2022-10-22T12:10:06.238Z,6.2
2022-10-22T12:12:10.590Z,5.4
2022-10-22T12:14:16.418Z,6.0
2022-10-22T12:16:04.964Z,6.8
2022-10-22T12:18:05.978Z,5.9
2022-10-22T12:20:12.454Z,6.0
2022-10-22T12:22:13.844Z,7.8
2022-10-22T12:24:03.864Z,5.6
2022-10-22T12:26:05.050Z,6.1
2022-10-22T12:28:02.343Z,7.9
2022-10-22T12:30:12.789Z,6.2
2022-10-22T12:32:04.450Z,10.6
2022-10-22T12:34:02.760Z,7.1
2022-10-22T12:36:03.732Z,7.4
2022-10-22T12:38:12.444Z,7.4
2022-10-22T12:40:02.151Z,8.1
2022-10-22T12:42:05.464Z,8.4
2022-10-22T12:44:05.153Z,7.0
2022-10-22T12:46:02.286Z,6.6
2022-10-22T12:48:05.333Z,6.5
2022-10-22T12:50:04.863Z,4.6
2022-10-22T12:52:05.031Z,9.5
2022-10-22T12:54:09.619Z,9.7
2022-10-22T12:56:05.151Z,7.1
2022-10-22T12:58:06.400Z,5.8
2022-10-22T13:00:03.705Z,6.3
2022-10-22T13:02:07.872Z,7.7
2022-10-22T13:04:17.099Z,5.2
2022-10-22T13:06:13.208Z,10.1
2022-10-22T13:08:04.916Z,7.2
2022-10-22T13:10:02.287Z,7.2
2022-10-22T13:12:05.597Z,7.4
2022-10-22T13:14:04.233Z,6.6
2022-10-22T13:16:14.145Z,6.9
2022-10-22T13:18:05.793Z,6.0
2022-10-22T13:20:04.947Z,7.2
2022-10-22T13:22:02.182Z,10.0
2022-10-22T13:24:12.871Z,7.4
2022-10-22T13:26:12.556Z,11.3
2022-10-22T13:28:13.041Z,9.1
2022-10-22T13:30:10.510Z,6.7
2022-10-22T13:32:02.873Z,7.2
2022-10-22T13:34:10.888Z,5.4
2022-10-22T13:36:03.998Z,6.0
2022-10-22T13:38:03.459Z,5.9
2022-10-22T13:40:02.373Z,5.9
2022-10-22T13:42:02.329Z,8.4
2022-10-22T13:44:02.205Z,7.1
2022-10-22T13:46:02.225Z,181.1
2022-10-22T13:48:02.621Z,58.9
2022-10-22T13:50:07.534Z,18.9
2022-10-22T13:52:03.570Z,68.3
2022-10-22T13:54:04.607Z,54.8
2022-10-22T13:56:02.213Z,60.3
2022-10-22T13:58:11.624Z,53.1
2022-10-22T14:00:02.317Z,42.6
2022-10-22T14:02:06.045Z,66.4
2022-10-22T14:04:05.775Z,25.7
2022-10-22T14:06:02.423Z,35.5
2022-10-22T14:08:03.273Z,23.3
2022-10-22T14:10:02.716Z,57.0
2022-10-22T14:12:02.216Z,34.0
2022-10-22T14:14:04.518Z,59.7
2022-10-22T14:16:05.572Z,126.7
2022-10-22T14:18:05.752Z,57.5
2022-10-22T14:20:02.254Z,73.8
2022-10-22T14:22:02.732Z,55.2
2022-10-22T14:24:02.204Z,75.3
2022-10-22T14:26:03.091Z,49.2
2022-10-22T14:28:02.191Z,48.0
2022-10-22T14:30:02.476Z,123.3
2022-10-22T14:32:02.224Z,104.7
2022-10-22T14:34:02.423Z,43.2
2022-10-22T14:36:03.169Z,63.5
2022-10-22T14:38:02.231Z,151.3
2022-10-22T14:40:02.247Z,134.3
2022-10-22T14:42:02.456Z,119.5
2022-10-22T14:44:02.293Z,77.1
2022-10-22T14:46:02.744Z,435.6
2022-10-22T14:48:02.415Z,247.1
2022-10-22T14:50:02.207Z,382.9
2022-10-22T14:52:02.226Z,89.4
2022-10-22T14:54:02.406Z,89.4
2022-10-22T14:56:02.318Z,86.7
2022-10-22T14:58:02.751Z,50.4
2022-10-22T15:00:04.056Z,105.8
2022-10-22T15:02:02.198Z,7.0
2022-10-22T15:04:03.279Z,45.5
2022-10-22T15:06:03.657Z,17.4
2022-10-22T15:08:02.984Z,9.1
2022-10-22T15:10:02.454Z,12.2
2022-10-22T15:12:02.267Z,7.9
2022-10-22T15:14:02.975Z,7.2
2022-10-22T15:16:05.547Z,6.3
2022-10-22T15:18:02.439Z,8.1
2022-10-22T15:20:03.905Z,6.9
2022-10-22T15:22:02.369Z,6.1
2022-10-22T15:24:02.279Z,7.8
2022-10-22T15:26:02.959Z,6.7
2022-10-22T15:28:09.458Z,7.9
2022-10-22T15:32:03.044Z,12.8
2022-10-22T15:34:02.198Z,7.2
2022-10-22T15:36:11.252Z,11.1
2022-10-22T15:38:02.866Z,8.1
2022-10-22T15:40:03.333Z,14.2
2022-10-22T15:42:02.714Z,6.3
2022-10-22T15:44:02.828Z,5.5
2022-10-22T15:46:11.717Z,6.5
2022-10-22T15:48:02.170Z,5.1
2022-10-22T15:50:02.306Z,6.3
2022-10-22T15:52:03.369Z,11.5
2022-10-22T15:54:06.415Z,9.1
2022-10-22T15:56:02.246Z,12.9
2022-10-22T15:58:03.404Z,16.2
2022-10-22T16:00:02.249Z,11.6
2022-10-22T16:02:03.310Z,8.4
2022-10-22T16:04:03.025Z,10.4
2022-10-22T16:06:03.502Z,8.8
2022-10-22T16:08:02.221Z,29.8
2022-10-22T16:10:02.279Z,22.4
2022-10-22T16:12:02.751Z,13.1
2022-10-22T16:14:02.910Z,12.0
2022-10-22T16:16:06.768Z,27.3
2022-10-22T16:18:02.379Z,11.5
2022-10-22T16:20:02.409Z,5.6
2022-10-22T16:22:02.994Z,10.6
2022-10-22T16:24:06.103Z,43.6
2022-10-22T16:26:03.443Z,6.1
2022-10-22T16:28:02.411Z,6.5
2022-10-22T16:30:02.333Z,8.3
2022-10-22T16:32:02.289Z,10.9
2022-10-22T16:34:02.722Z,5.4
2022-10-22T16:36:02.959Z,7.1
2022-10-22T16:38:02.242Z,7.7
2022-10-22T16:40:05.838Z,15.6
2022-10-22T16:42:02.938Z,7.4
2022-10-22T16:44:05.668Z,6.9
2022-10-22T16:46:02.573Z,13.3
2022-10-22T16:48:02.246Z,19.1
2022-10-22T16:50:02.901Z,9.4
2022-10-22T16:52:02.352Z,13.4
2022-10-22T16:54:04.638Z,7.2
2022-10-22T16:56:03.305Z,10.0
2022-10-22T16:58:02.985Z,19.4
2022-10-22T17:00:03.745Z,40.4
2022-10-22T17:04:02.334Z,16.8
2022-10-22T17:06:04.021Z,6.8
2022-10-22T17:08:02.779Z,21.8
2022-10-22T17:10:04.266Z,5.2
2022-10-22T17:12:02.920Z,6.5
2022-10-22T17:14:03.230Z,4.1
2022-10-22T17:16:03.830Z,4.9
2022-10-22T17:18:03.659Z,5.9
2022-10-22T17:20:03.008Z,4.5
2022-10-22T17:22:02.252Z,4.8
2022-10-22T17:24:02.750Z,4.3
2022-10-22T17:26:06.148Z,3.6
2022-10-22T17:28:02.788Z,5.3
2022-10-22T17:30:02.347Z,5.0
2022-10-22T17:32:02.293Z,5.0
2022-10-22T17:34:02.242Z,8.2
2022-10-22T17:36:06.703Z,23.7
2022-10-22T17:38:02.773Z,20.7
2022-10-22T17:40:02.415Z,5.3
2022-10-22T17:42:02.402Z,7.9
2022-10-22T17:44:03.759Z,6.9
2022-10-22T17:46:05.547Z,5.4
2022-10-22T17:48:02.821Z,7.9
2022-10-22T17:50:03.686Z,7.0
2022-10-22T17:52:02.209Z,6.5
2022-10-22T17:54:04.677Z,6.0
2022-10-22T17:56:06.613Z,6.6
2022-10-22T17:58:02.993Z,5.7
2022-10-22T18:00:02.324Z,5.5
2022-10-22T18:02:03.621Z,6.5
2022-10-22T18:04:05.470Z,6.3
2022-10-22T18:06:10.673Z,7.5
2022-10-22T18:08:06.957Z,8.7
2022-10-22T18:10:02.390Z,9.3
2022-10-22T18:12:02.731Z,6.5
2022-10-22T18:14:03.207Z,6.6
2022-10-22T18:16:03.449Z,7.2
2022-10-22T18:18:03.289Z,5.1
2022-10-22T18:20:03.248Z,6.8
2022-10-22T18:22:02.210Z,7.5
2022-10-22T18:24:02.159Z,6.6
2022-10-22T18:26:04.601Z,7.4
2022-10-22T18:28:02.178Z,7.7
2022-10-22T18:30:02.572Z,8.2
2022-10-22T18:32:08.288Z,7.0
2022-10-22T18:34:02.172Z,6.9
2022-10-22T18:36:05.765Z,10.3
2022-10-22T18:38:02.318Z,9.3
2022-10-22T18:40:02.205Z,7.2
2022-10-22T18:42:05.812Z,10.0
2022-10-22T18:44:04.745Z,13.2
2022-10-22T18:46:05.789Z,11.0
2022-10-22T18:48:02.783Z,14.3
2022-10-22T18:50:02.802Z,10.0
2022-10-22T18:52:02.844Z,7.5
2022-10-22T18:54:11.641Z,8.8
2022-10-22T18:56:05.546Z,7.8
2022-10-22T18:58:02.162Z,6.7
2022-10-22T19:00:02.272Z,6.1
2022-10-22T19:02:02.289Z,5.6
2022-10-22T19:04:02.701Z,7.2
2022-10-22T19:06:02.612Z,5.2
2022-10-22T19:08:02.677Z,7.4
2022-10-22T19:10:02.244Z,7.5
2022-10-22T19:12:02.276Z,6.4
2022-10-22T19:14:02.303Z,7.2
2022-10-22T19:16:04.021Z,4.9
2022-10-22T19:18:02.468Z,5.3
2022-10-22T19:20:02.888Z,5.4
2022-10-22T19:22:02.179Z,5.4
2022-10-22T19:24:02.513Z,8.9
2022-10-22T19:26:06.133Z,6.4
2022-10-22T19:28:03.143Z,6.4
2022-10-22T19:30:02.520Z,7.5
2022-10-22T19:32:02.713Z,5.9
2022-10-22T19:34:03.180Z,6.6
2022-10-22T19:36:05.400Z,6.6
2022-10-22T19:38:02.945Z,8.6
2022-10-22T19:40:02.187Z,5.6
2022-10-22T19:42:03.777Z,6.1
2022-10-22T19:44:02.979Z,6.2
2022-10-22T19:46:04.567Z,7.4
2022-10-22T19:48:02.146Z,5.9
2022-10-22T19:50:02.400Z,6.6
2022-10-22T19:52:02.347Z,7.2
2022-10-22T19:54:05.357Z,6.7
2022-10-22T19:56:06.393Z,7.9
2022-10-22T19:58:02.250Z,6.4
2022-10-22T20:00:03.079Z,6.1
2022-10-22T20:02:02.807Z,5.7
2022-10-22T20:04:03.154Z,5.8
2022-10-22T20:06:03.751Z,5.7
2022-10-22T20:08:02.272Z,5.8
2022-10-22T20:10:02.252Z,5.4
2022-10-22T20:12:03.127Z,5.7
2022-10-22T20:14:03.329Z,5.6
2022-10-22T20:16:04.195Z,4.8
2022-10-22T20:18:02.349Z,6.4
2022-10-22T20:20:02.249Z,6.7
2022-10-22T20:22:02.143Z,5.5
2022-10-22T20:24:02.388Z,4.1
2022-10-22T20:26:02.349Z,4.4
2022-10-22T20:28:03.204Z,4.7
2022-10-22T20:30:02.724Z,5.3
2022-10-22T20:32:04.272Z,4.2
2022-10-22T20:34:03.724Z,4.3
2022-10-22T20:36:04.876Z,5.4
2022-10-22T20:38:02.895Z,5.5
2022-10-22T20:40:03.391Z,5.3
2022-10-22T20:42:02.999Z,5.3
2022-10-22T20:44:02.789Z,5.3
2022-10-22T20:46:04.447Z,6.1
2022-10-22T20:48:02.966Z,5.5
2022-10-22T20:50:02.940Z,6.1
2022-10-22T20:52:02.290Z,7.0
2022-10-22T20:54:02.442Z,7.1
2022-10-22T20:56:03.029Z,4.5
2022-10-22T20:58:02.321Z,5.3
2022-10-22T21:00:02.254Z,4.5
2022-10-22T21:02:03.475Z,5.1
2022-10-22T21:04:02.209Z,5.0
2022-10-22T21:06:03.333Z,5.1
2022-10-22T21:08:04.447Z,6.5
2022-10-22T21:10:02.194Z,5.4
2022-10-22T21:12:02.908Z,5.2
2022-10-22T21:14:03.633Z,4.8
2022-10-22T21:16:07.179Z,5.2
2022-10-22T21:18:02.393Z,6.4
2022-10-22T21:20:02.564Z,6.3
2022-10-22T21:22:02.189Z,6.1
2022-10-22T21:24:02.220Z,6.0
2022-10-22T21:26:02.351Z,5.7
2022-10-22T21:28:02.197Z,5.4
2022-10-22T21:30:02.475Z,7.9
2022-10-22T21:32:02.784Z,6.6
2022-10-22T21:34:02.724Z,6.1
2022-10-22T21:36:02.142Z,5.7
2022-10-22T21:38:02.402Z,7.4
2022-10-22T21:40:04.213Z,6.8
2022-10-22T21:42:03.158Z,4.9
2022-10-22T21:44:02.425Z,6.1
2022-10-22T21:46:06.938Z,7.3
2022-10-22T21:48:02.162Z,5.6
2022-10-22T21:50:02.418Z,6.2
2022-10-22T21:52:02.614Z,4.6
2022-10-22T21:54:02.754Z,4.3
2022-10-22T21:56:03.566Z,5.3
2022-10-22T21:58:02.219Z,6.3
2022-10-22T22:00:02.249Z,4.7
2022-10-22T22:02:05.658Z,5.5
2022-10-22T22:04:03.003Z,5.2
2022-10-22T22:06:05.984Z,6.1
2022-10-22T22:08:02.200Z,6.7
2022-10-22T22:10:02.234Z,5.5
2022-10-22T22:12:02.242Z,4.6
2022-10-22T22:14:02.418Z,4.9
2022-10-22T22:16:04.202Z,5.1
2022-10-22T22:18:02.409Z,4.8
2022-10-22T22:20:05.454Z,5.4
2022-10-22T22:22:02.149Z,4.4
2022-10-22T22:24:03.696Z,5.6
2022-10-22T22:26:02.989Z,5.6
2022-10-22T22:28:02.371Z,5.5
2022-10-22T22:30:02.400Z,5.2
2022-10-22T22:32:02.431Z,5.5
2022-10-22T22:34:04.485Z,4.8
2022-10-22T22:36:02.171Z,4.8
2022-10-22T22:38:02.276Z,6.5
2022-10-22T22:40:02.236Z,5.6
2022-10-22T22:42:02.406Z,4.9
2022-10-22T22:44:02.474Z,4.9
2022-10-22T22:46:04.488Z,5.1
2022-10-22T22:48:02.225Z,5.6
2022-10-22T22:50:02.411Z,6.5
2022-10-22T22:52:02.193Z,5.1
2022-10-22T22:54:02.549Z,4.6
2022-10-22T22:56:05.059Z,5.7
2022-10-22T22:58:02.749Z,6.2
2022-10-22T23:00:02.367Z,6.3
2022-10-22T23:02:02.241Z,5.4
2022-10-22T23:04:04.563Z,4.7
2022-10-22T23:06:02.402Z,4.8
2022-10-22T23:08:02.282Z,4.6
2022-10-22T23:10:02.286Z,4.4
2022-10-22T23:12:02.457Z,6.5
2022-10-22T23:14:05.024Z,4.9
2022-10-22T23:16:06.712Z,5.3
2022-10-22T23:18:02.567Z,4.4
2022-10-22T23:20:03.395Z,5.2
2022-10-22T23:22:02.287Z,4.3
2022-10-22T23:24:05.074Z,4.9
2022-10-22T23:26:02.219Z,4.3
2022-10-22T23:28:02.180Z,4.2
2022-10-22T23:30:02.571Z,4.5
2022-10-22T23:32:03.923Z,5.6
2022-10-22T23:34:02.900Z,6.4
2022-10-22T23:36:02.622Z,5.6
2022-10-22T23:38:02.273Z,5.5
2022-10-22T23:40:02.183Z,5.9
2022-10-22T23:42:02.599Z,4.2
2022-10-22T23:44:02.831Z,5.1
2022-10-22T23:46:03.151Z,4.9
2022-10-22T23:48:02.462Z,5.1
2022-10-22T23:50:02.271Z,6.7
2022-10-22T23:52:02.177Z,4.6
2022-10-22T23:54:05.567Z,4.3
2022-10-22T23:56:05.590Z,4.9
2022-10-22T23:58:02.165Z,4.9
